createdAt,value
2023-04-12T00:02:06.078Z,98641.69
2023-04-12T00:04:33.877Z,98646.80
2023-04-12T00:07:05.411Z,98656.15
2023-04-12T00:09:39.824Z,98657.77
2023-04-12T00:12:07.007Z,98652.89
2023-04-12T00:14:36.640Z,98652.86
2023-04-12T00:17:03.752Z,98645.34
2023-04-12T00:19:30.544Z,98646.57
2023-04-12T00:22:00.816Z,98639.25
2023-04-12T00:24:29.951Z,98643.23
2023-04-12T00:26:56.921Z,98644.84
2023-04-12T00:29:28.745Z,98641.19
2023-04-12T00:31:55.813Z,98639.88
2023-04-12T00:34:23.171Z,98636.90
2023-04-12T00:36:49.806Z,98637.41
2023-04-12T00:39:19.128Z,98635.06
2023-04-12T00:41:48.001Z,98643.40
2023-04-12T00:44:17.626Z,98642.83
2023-04-12T00:46:46.606Z,98637.99
2023-04-12T00:49:14.848Z,98640.17
2023-04-12T00:51:45.798Z,98638.91
2023-04-12T00:54:13.766Z,98635.42
2023-04-12T00:56:40.817Z,98634.10
2023-04-12T00:59:11.902Z,98638.40
2023-04-12T01:01:41.358Z,98634.55
2023-04-12T01:04:13.454Z,98630.04
2023-04-12T01:07:03.778Z,98629.92
2023-04-12T07:07:25.070Z,98520.98
2023-04-12T07:10:35.014Z,98523.52
2023-04-12T07:13:07.579Z,98514.12
2023-04-12T07:15:39.138Z,98514.08
2023-04-12T07:18:06.045Z,98513.16
2023-04-12T07:20:37.457Z,98507.94
2023-04-12T07:23:08.691Z,98511.48
2023-04-12T07:25:40.967Z,98508.13
2023-04-12T07:28:09.055Z,98506.00
2023-04-12T07:30:38.130Z,98502.59
2023-04-12T07:33:16.238Z,98501.13
2023-04-12T07:35:46.340Z,98496.34
2023-04-12T07:38:14.559Z,98491.92
2023-04-12T07:40:49.828Z,98492.70
2023-04-12T07:43:19.269Z,98495.66
2023-04-12T07:45:50.245Z,98494.96
2023-04-12T07:48:16.894Z,98497.39
2023-04-12T07:50:50.795Z,98501.34
2023-04-12T07:53:20.708Z,98505.86
2023-04-12T07:55:48.838Z,98509.15
2023-04-12T07:58:17.210Z,98510.55
2023-04-12T08:00:44.950Z,98512.23
2023-04-12T08:03:12.968Z,98511.74
2023-04-12T08:05:40.737Z,98514.86
2023-04-12T08:08:13.488Z,98516.67
2023-04-12T08:10:45.172Z,98518.65
2023-04-12T08:13:16.538Z,98519.06
2023-04-12T08:15:43.340Z,98524.83
2023-04-12T08:18:10.544Z,98536.23
2023-04-12T08:20:40.194Z,98537.70
2023-04-12T08:23:10.310Z,98538.30
2023-04-12T08:25:40.068Z,98539.77
2023-04-12T08:28:10.292Z,98544.55
2023-04-12T08:30:44.288Z,98543.95
2023-04-12T08:33:11.300Z,98547.94
2023-04-12T09:07:50.325Z,98633.13
2023-04-12T09:11:00.667Z,98625.59
2023-04-12T09:14:11.150Z,98624.90
2023-04-12T09:18:17.676Z,98633.96
2023-04-12T09:21:46.891Z,98642.88
2023-04-12T09:24:14.761Z,98645.04
2023-04-12T09:26:47.916Z,98657.90
2023-04-12T09:29:38.209Z,98675.25
2023-04-12T09:33:05.485Z,98690.18
2023-04-12T09:35:35.952Z,98695.84
2023-04-12T09:38:12.109Z,98695.02
2023-04-12T09:40:45.874Z,98698.73
2023-04-12T09:43:12.876Z,98704.13
2023-04-12T09:45:42.262Z,98717.75
2023-04-12T09:48:25.798Z,98718.86
2023-04-12T09:51:00.802Z,98722.11
2023-04-12T09:53:28.069Z,98726.03
2023-04-12T09:55:57.160Z,98735.66
2023-04-12T09:58:30.630Z,98742.95
2023-04-12T13:26:48.463Z,98766.90
2023-04-12T13:29:19.037Z,98845.84
2023-04-12T13:31:49.450Z,98794.64
2023-04-12T13:34:17.707Z,98746.70
2023-04-12T13:36:49.020Z,98723.80
2023-04-12T13:39:17.840Z,98714.37
2023-04-12T13:41:46.044Z,98748.05
2023-04-12T13:44:16.579Z,98740.33
2023-04-12T13:46:50.745Z,98741.61
2023-04-12T13:49:21.494Z,98738.45
2023-04-12T13:51:54.368Z,98741.30
2023-04-12T13:54:22.957Z,98747.21
2023-04-12T13:56:51.425Z,98743.80
2023-04-12T13:59:22.358Z,98738.23
2023-04-12T14:01:50.708Z,98739.52
2023-04-12T14:04:19.257Z,98749.88
2023-04-12T14:06:50.209Z,98747.92
2023-04-12T14:09:30.986Z,98744.78
2023-04-12T14:12:01.826Z,98737.39
2023-04-12T14:14:37.095Z,98750.60
2023-04-12T14:17:08.239Z,98750.16
2023-04-12T15:48:49.290Z,98771.33
2023-04-12T15:51:27.558Z,98763.05
2023-04-12T15:53:56.600Z,98763.27
2023-04-12T15:56:27.306Z,98757.10
2023-04-12T18:02:48.212Z,98728.42
2023-04-12T18:07:00.227Z,98730.15
2023-04-12T18:10:33.738Z,98734.21
2023-04-12T18:17:57.251Z,98728.11
2023-04-12T18:21:17.858Z,98726.48
2023-04-12T18:28:20.237Z,98718.52
2023-04-12T18:30:48.612Z,98708.89
2023-04-12T18:33:18.076Z,98702.45
2023-04-12T18:35:46.274Z,98701.45
2023-04-12T18:38:15.317Z,98698.73
2023-04-12T18:40:43.994Z,98695.02
2023-04-12T18:43:12.975Z,98689.02
2023-04-12T18:45:44.297Z,98677.67
2023-04-12T18:48:13.529Z,98676.92
2023-04-12T18:50:54.747Z,98669.26
2023-04-12T18:53:23.243Z,98668.05
2023-04-12T18:55:52.476Z,98661.81
2023-04-12T18:58:21.378Z,98662.55
2023-04-12T19:00:50.825Z,98664.41
2023-04-12T19:03:19.849Z,98665.63
2023-04-12T19:05:51.366Z,98663.67
2023-04-12T19:08:20.389Z,98664.30
2023-04-12T19:10:52.175Z,98662.08
2023-04-12T19:13:20.736Z,98663.61
2023-04-12T19:15:49.574Z,98655.48
2023-04-12T19:18:17.917Z,98652.70
2023-04-12T19:20:46.609Z,98648.31
2023-04-12T19:23:15.100Z,98650.08
2023-04-12T19:25:47.298Z,98648.72
2023-04-12T19:28:15.901Z,98645.41
2023-04-12T19:30:45.085Z,98636.48
2023-04-12T19:33:16.695Z,98629.65
2023-04-12T19:35:45.164Z,98630.67
2023-04-12T19:38:15.492Z,98627.97
2023-04-12T19:40:43.843Z,98628.80
2023-04-12T19:43:14.932Z,98626.58
2023-04-12T19:45:43.377Z,98620.59
2023-04-12T19:48:17.136Z,98619.51
2023-04-12T19:50:48.515Z,98614.77
2023-04-12T19:53:18.377Z,98610.80
2023-04-12T19:55:46.657Z,98607.53
2023-04-12T19:58:18.507Z,98603.42
2023-04-12T20:00:59.652Z,98603.53
2023-04-12T20:03:30.055Z,98600.73
2023-04-12T20:06:08.872Z,98594.55
2023-04-12T20:08:37.975Z,98587.14
2023-04-12T20:11:08.849Z,98579.23
2023-04-12T20:13:39.894Z,98579.49
2023-04-12T20:16:13.230Z,98575.88
2023-04-12T20:18:43.896Z,98574.31
2023-04-12T20:21:12.564Z,98572.74
2023-04-12T20:23:43.078Z,98564.88
2023-04-12T20:26:11.448Z,98566.73
2023-04-12T20:28:39.664Z,98564.06
2023-04-12T20:31:11.664Z,98558.91
2023-04-12T20:33:41.323Z,98556.80
2023-04-12T20:36:12.374Z,98551.60
2023-04-12T20:38:52.627Z,98548.11
2023-04-12T20:41:20.979Z,98540.44
2023-04-12T20:57:13.098Z,98539.91
2023-04-12T21:00:25.829Z,98538.74
2023-04-12T21:06:13.241Z,98532.64
2023-04-12T21:09:45.993Z,98536.93
2023-04-12T21:13:06.419Z,98540.55
2023-04-12T21:15:36.485Z,98534.61
2023-04-12T21:18:04.986Z,98539.02
2023-04-12T21:20:34.586Z,98541.55
2023-04-12T21:23:44.977Z,98542.45
2023-04-12T21:26:16.154Z,98545.48
2023-04-12T21:28:46.811Z,98541.94
2023-04-12T21:31:15.395Z,98549.13
2023-04-12T21:33:43.620Z,98546.20
2023-04-12T21:36:14.569Z,98547.96
2023-04-12T21:38:42.709Z,98547.27
2023-04-12T21:41:11.638Z,98543.08
2023-04-12T21:43:41.820Z,98539.06
2023-04-12T21:46:09.950Z,98530.50
2023-04-12T21:48:39.554Z,98526.26
2023-04-12T21:51:10.202Z,98519.39
2023-04-12T21:53:38.654Z,98514.22
2023-04-12T21:56:09.077Z,98513.47
2023-04-12T21:58:37.525Z,98506.28
2023-04-12T22:01:07.092Z,98501.27
2023-04-12T22:03:35.815Z,98499.34
2023-04-12T22:06:05.319Z,98488.77
2023-04-12T22:08:34.214Z,98487.20
2023-04-12T22:11:02.515Z,98481.39
2023-04-12T22:13:30.937Z,98479.83
2023-04-12T22:16:00.824Z,98482.10
2023-04-12T22:18:31.789Z,98484.14
2023-04-12T22:20:59.841Z,98481.85
2023-04-12T22:23:27.873Z,98473.48
2023-04-12T22:25:58.518Z,98469.50
2023-04-12T22:28:26.757Z,98468.90
2023-04-12T22:30:57.240Z,98469.17
2023-04-12T22:33:25.419Z,98468.32
2023-04-12T22:35:53.863Z,98465.55
2023-04-12T22:38:21.971Z,98463.18
2023-04-12T22:40:49.975Z,98457.11
2023-04-12T22:43:18.341Z,98459.03
2023-04-12T22:45:46.750Z,98458.65
2023-04-12T22:48:16.042Z,98449.91
2023-04-12T22:50:47.039Z,98447.02
2023-04-12T22:53:17.826Z,98440.39
2023-04-12T22:55:48.701Z,98434.67
2023-04-12T22:58:17.136Z,98438.23
2023-04-12T23:00:45.540Z,98436.86
2023-04-12T23:03:13.749Z,98429.11
2023-04-12T23:05:44.840Z,98426.65
2023-04-12T23:08:17.914Z,98419.63
2023-04-12T23:10:48.633Z,98410.94
2023-04-12T23:13:16.620Z,98409.55
2023-04-12T23:15:44.913Z,98403.13
2023-04-12T23:18:13.147Z,98401.04
2023-04-12T23:20:44.809Z,98401.18
2023-04-12T23:23:13.638Z,98392.16
2023-04-12T23:25:41.876Z,98394.26
2023-04-12T23:28:15.328Z,98394.38
2023-04-12T23:31:07.227Z,98388.22
2023-04-12T23:33:35.646Z,98385.90
2023-04-12T23:36:06.863Z,98385.46
2023-04-12T23:38:35.360Z,98379.89
2023-04-12T23:41:09.055Z,98378.47
2023-04-12T23:43:45.088Z,98376.85
2023-04-12T23:46:13.652Z,98378.60
2023-04-12T23:48:44.561Z,98381.98
2023-04-12T23:51:13.333Z,98383.48
2023-04-12T23:53:42.660Z,98382.92
2023-04-12T23:56:20.077Z,98380.33
2023-04-12T23:58:48.821Z,98370.33
